createdAt,value
2019-03-15T00:01:40.801Z,7.50
2019-03-15T00:04:09.357Z,7.50
2019-03-15T00:06:37.845Z,7.50
2019-03-15T00:09:08.077Z,7.50
2019-03-15T00:11:36.467Z,7.60
2019-03-15T00:14:05.041Z,7.50
2019-03-15T00:16:33.590Z,7.50
2019-03-15T00:19:02.056Z,7.50
2019-03-15T00:21:30.724Z,7.50
2019-03-15T00:23:59.244Z,7.50
2019-03-15T00:26:27.711Z,7.50
2019-03-15T00:28:56.240Z,7.50
2019-03-15T00:31:25.101Z,7.40
2019-03-15T00:33:53.585Z,7.40
2019-03-15T00:36:21.997Z,7.40
2019-03-15T00:38:50.458Z,7.40
2019-03-15T00:41:19.062Z,7.40
2019-03-15T00:43:49.318Z,7.40
2019-03-15T00:46:17.788Z,7.50
2019-03-15T00:48:46.258Z,7.40
2019-03-15T00:51:14.684Z,7.40
2019-03-15T00:53:43.223Z,7.40
2019-03-15T00:56:11.869Z,7.40
2019-03-15T00:58:40.440Z,7.40
2019-03-15T01:01:08.904Z,7.40
2019-03-15T01:03:37.423Z,7.30
2019-03-15T01:06:06.053Z,7.30
2019-03-15T01:08:34.526Z,7.30
2019-03-15T01:11:02.988Z,7.30
2019-03-15T01:13:32.834Z,7.30
2019-03-15T01:16:01.269Z,7.30
2019-03-15T01:18:29.730Z,7.30
2019-03-15T01:20:58.199Z,7.40
2019-03-15T01:23:26.610Z,7.40
2019-03-15T01:25:55.003Z,7.30
2019-03-15T01:28:23.479Z,7.30
2019-03-15T01:30:52.068Z,7.30
2019-03-15T01:33:20.612Z,7.30
2019-03-15T01:35:49.186Z,7.30
2019-03-15T01:38:17.642Z,7.30
2019-03-15T01:40:48.656Z,7.30
2019-03-15T01:43:16.202Z,7.30
2019-03-15T01:45:44.596Z,7.40
2019-03-15T01:48:13.037Z,7.40
2019-03-15T01:50:41.440Z,7.40
2019-03-15T01:53:09.830Z,7.40
2019-03-15T01:55:38.233Z,7.40
2019-03-15T01:58:06.694Z,7.40
2019-03-15T02:00:35.178Z,7.30
2019-03-15T02:03:03.615Z,7.40
2019-03-15T02:05:32.032Z,7.40
2019-03-15T02:08:00.743Z,7.40
2019-03-15T02:10:29.337Z,7.30
2019-03-15T02:12:57.765Z,7.30
2019-03-15T02:15:26.285Z,7.30
2019-03-15T02:17:54.711Z,7.30
2019-03-15T02:20:42.622Z,7.30
2019-03-15T02:23:11.117Z,7.30
2019-03-15T02:25:39.570Z,7.30
2019-03-15T02:28:08.694Z,7.20
2019-03-15T02:30:37.067Z,7.20
2019-03-15T02:33:06.014Z,7.20
2019-03-15T02:35:34.879Z,7.20
2019-03-15T02:38:03.380Z,7.20
2019-03-15T02:40:31.844Z,7.20
2019-03-15T02:43:00.303Z,7.20
2019-03-15T02:45:28.799Z,7.20
2019-03-15T02:47:57.276Z,7.20
2019-03-15T02:50:25.796Z,7.20
2019-03-15T02:52:54.364Z,7.20
2019-03-15T02:55:22.819Z,7.20
2019-03-15T02:57:51.291Z,7.20
2019-03-15T03:00:19.698Z,7.20
2019-03-15T03:02:48.087Z,7.20
2019-03-15T03:05:16.596Z,7.20
2019-03-15T03:07:45.004Z,7.20
2019-03-15T03:10:13.527Z,7.10
2019-03-15T03:12:41.942Z,7.10
2019-03-15T03:15:10.346Z,7.10
2019-03-15T03:17:40.098Z,7.20
2019-03-15T03:20:29.962Z,7.20
2019-03-15T03:22:58.387Z,7.10
2019-03-15T03:25:26.786Z,7.10
2019-03-15T03:27:55.176Z,7.10
2019-03-15T03:30:24.544Z,7.10
2019-03-15T03:32:52.986Z,7.10
2019-03-15T03:35:21.449Z,7.10
2019-03-15T03:37:49.981Z,7.10
2019-03-15T03:40:20.532Z,7.20
2019-03-15T03:42:48.424Z,7.20
2019-03-15T03:45:16.863Z,7.20
2019-03-15T03:47:45.315Z,7.20
2019-03-15T03:50:13.782Z,7.20
2019-03-15T03:52:42.325Z,7.10
2019-03-15T03:55:10.787Z,7.10
2019-03-15T03:57:39.369Z,7.00
2019-03-15T04:00:13.332Z,7.00
2019-03-15T04:02:41.792Z,7.00
2019-03-15T04:05:10.269Z,6.90
2019-03-15T04:07:38.699Z,7.00
2019-03-15T04:10:09.401Z,7.00
2019-03-15T04:12:37.796Z,7.00
2019-03-15T04:15:10.638Z,7.00
2019-03-15T04:17:39.182Z,7.00
2019-03-15T04:20:11.937Z,7.00
2019-03-15T04:22:40.352Z,7.10
2019-03-15T04:25:10.538Z,7.10
2019-03-15T04:27:39.036Z,7.10
2019-03-15T04:30:12.119Z,7.10
2019-03-15T04:32:40.570Z,7.20
2019-03-15T04:35:09.025Z,7.10
2019-03-15T04:37:37.582Z,7.20
2019-03-15T04:40:09.371Z,7.20
2019-03-15T04:42:37.897Z,7.20
2019-03-15T04:45:08.131Z,7.10
2019-03-15T04:47:36.595Z,7.10
2019-03-15T04:50:06.693Z,7.10
2019-03-15T04:52:35.306Z,7.10
2019-03-15T04:55:04.408Z,7.20
2019-03-15T04:57:32.891Z,7.10
2019-03-15T05:00:01.395Z,7.20
2019-03-15T05:02:29.966Z,7.20
2019-03-15T05:05:00.267Z,7.10
2019-03-15T05:07:28.683Z,7.20
2019-03-15T05:09:57.145Z,7.20
2019-03-15T05:12:25.670Z,7.10
2019-03-15T05:14:54.183Z,7.10
2019-03-15T05:17:22.642Z,7.10
2019-03-15T05:19:51.104Z,7.10
2019-03-15T05:22:19.522Z,7.10
2019-03-15T05:24:47.991Z,7.20
2019-03-15T05:27:16.464Z,7.20
2019-03-15T05:29:44.985Z,7.30
2019-03-15T05:32:13.536Z,7.30
2019-03-15T05:34:41.942Z,7.30
2019-03-15T05:37:10.438Z,7.30
2019-03-15T05:39:38.902Z,7.30
2019-03-15T05:42:07.406Z,7.30
2019-03-15T05:44:35.974Z,7.30
2019-03-15T05:47:04.430Z,7.30
2019-03-15T05:49:32.924Z,7.30
2019-03-15T05:52:01.387Z,7.30
2019-03-15T05:54:29.793Z,7.30
2019-03-15T05:56:58.284Z,7.30
2019-03-15T05:59:26.810Z,7.30
2019-03-15T06:01:55.284Z,7.30
2019-03-15T06:04:23.709Z,7.20
2019-03-15T06:06:52.172Z,7.20
2019-03-15T06:09:20.601Z,7.20
2019-03-15T06:11:49.132Z,7.10
2019-03-15T06:14:17.586Z,7.00
2019-03-15T06:16:46.051Z,7.00
2019-03-15T06:19:14.573Z,6.90
2019-03-15T06:21:43.030Z,6.90
2019-03-15T06:24:11.430Z,6.80
2019-03-15T06:26:39.879Z,6.80
2019-03-15T06:29:08.344Z,6.70
2019-03-15T06:31:36.829Z,6.70
2019-03-15T06:34:05.291Z,6.60
2019-03-15T06:36:33.824Z,6.60
2019-03-15T06:39:02.818Z,6.60
2019-03-15T06:41:31.250Z,6.50
2019-03-15T06:43:59.703Z,6.50
2019-03-15T06:46:28.120Z,6.50
2019-03-15T06:49:16.714Z,6.50
2019-03-15T06:51:45.266Z,6.50
2019-03-15T06:54:13.735Z,6.50
2019-03-15T06:56:42.267Z,6.40
2019-03-15T06:59:10.740Z,6.40
2019-03-15T07:01:39.203Z,6.40
2019-03-15T07:04:07.698Z,6.40
2019-03-15T07:06:36.156Z,6.40
2019-03-15T07:09:07.310Z,6.40
2019-03-15T07:11:36.124Z,6.40
2019-03-15T07:14:04.681Z,6.50
2019-03-15T07:16:33.161Z,6.60
2019-03-15T07:19:01.655Z,6.60
2019-03-15T07:21:30.164Z,6.60
2019-03-15T07:23:58.599Z,6.70
2019-03-15T07:26:27.018Z,6.70
2019-03-15T07:28:55.552Z,6.70
2019-03-15T07:31:24.035Z,6.70
2019-03-15T07:33:52.481Z,6.70
2019-03-15T07:36:20.945Z,6.60
2019-03-15T07:38:49.552Z,6.60
2019-03-15T07:41:17.970Z,6.60
2019-03-15T07:43:46.427Z,6.60
2019-03-15T07:46:15.003Z,6.60
2019-03-15T07:48:43.415Z,6.50
2019-03-15T07:51:12.007Z,6.60
2019-03-15T07:53:40.517Z,6.60
2019-03-15T07:56:09.107Z,6.70
2019-03-15T07:58:37.655Z,6.60
2019-03-15T08:01:06.138Z,6.70
2019-03-15T08:03:35.003Z,6.70
2019-03-15T08:06:03.510Z,6.70
2019-03-15T08:08:32.088Z,6.80
2019-03-15T08:11:00.818Z,6.80
2019-03-15T08:13:29.207Z,6.80
2019-03-15T08:15:57.742Z,6.80
2019-03-15T08:18:26.170Z,6.90
2019-03-15T08:20:54.708Z,6.90
2019-03-15T08:23:23.281Z,7.00
2019-03-15T08:25:51.760Z,7.00
2019-03-15T08:28:20.289Z,7.10
2019-03-15T08:30:48.727Z,7.10
2019-03-15T08:33:17.163Z,7.10
2019-03-15T08:35:45.723Z,7.10
2019-03-15T08:38:14.169Z,7.10
2019-03-15T08:40:42.593Z,7.00
2019-03-15T08:43:11.069Z,7.10
2019-03-15T08:45:39.761Z,7.10
2019-03-15T08:48:08.266Z,7.10
2019-03-15T08:50:36.715Z,7.00
2019-03-15T08:53:05.115Z,7.00
2019-03-15T08:55:33.552Z,7.00
2019-03-15T08:58:13.294Z,6.90
2019-03-15T09:00:32.183Z,6.90
2019-03-15T09:03:00.850Z,6.90
2019-03-15T09:05:29.305Z,6.80
2019-03-15T09:07:57.828Z,6.90
2019-03-15T09:10:26.282Z,6.90
2019-03-15T09:12:54.806Z,6.90
2019-03-15T09:15:23.292Z,7.00
2019-03-15T09:17:51.918Z,7.00
2019-03-15T09:20:20.386Z,7.10
2019-03-15T09:22:48.976Z,7.10
2019-03-15T09:25:20.109Z,7.10
2019-03-15T09:27:48.462Z,7.00
2019-03-15T09:30:23.721Z,7.10
2019-03-15T09:32:47.342Z,7.20
2019-03-15T09:35:15.937Z,7.20
2019-03-15T09:37:47.377Z,7.30
2019-03-15T09:40:15.901Z,7.30
2019-03-15T09:42:44.279Z,7.20
2019-03-15T09:45:14.033Z,7.30
2019-03-15T09:47:42.511Z,7.30
2019-03-15T09:50:23.000Z,7.30
2019-03-15T09:52:42.597Z,7.40
2019-03-15T09:55:12.223Z,7.40
2019-03-15T09:57:40.784Z,7.40
2019-03-15T10:00:20.252Z,7.50
2019-03-15T10:02:48.673Z,7.50
2019-03-15T10:05:17.177Z,7.50
2019-03-15T10:07:45.577Z,7.50
2019-03-15T10:10:20.493Z,7.60
2019-03-15T10:12:48.953Z,7.60
2019-03-15T10:15:17.683Z,7.70
2019-03-15T10:17:46.111Z,7.70
2019-03-15T10:20:14.960Z,7.80
2019-03-15T10:22:43.338Z,7.80
2019-03-15T10:25:16.037Z,7.80
2019-03-15T10:27:44.512Z,7.70
2019-03-15T10:30:17.325Z,7.80
2019-03-15T10:32:45.793Z,7.90
2019-03-15T10:35:14.281Z,8.00
2019-03-15T10:37:42.773Z,8.00
2019-03-15T10:40:16.686Z,7.90
2019-03-15T10:42:45.155Z,7.80
2019-03-15T10:45:13.635Z,7.70
2019-03-15T10:47:42.626Z,7.70
2019-03-15T10:50:13.842Z,7.60
2019-03-15T10:52:42.345Z,7.60
2019-03-15T10:55:10.859Z,7.70
2019-03-15T10:57:39.534Z,7.70
2019-03-15T11:00:18.383Z,7.70
2019-03-15T11:02:46.915Z,7.80
2019-03-15T11:05:15.396Z,7.90
2019-03-15T11:07:43.789Z,7.90
2019-03-15T11:10:12.795Z,8.00
2019-03-15T11:12:41.266Z,8.10
2019-03-15T11:15:12.103Z,8.20
2019-03-15T11:17:40.579Z,8.20
2019-03-15T11:20:12.535Z,8.20
2019-03-15T11:22:40.966Z,8.20
2019-03-15T11:25:11.539Z,8.20
2019-03-15T11:27:39.935Z,8.20
2019-03-15T11:30:12.816Z,8.30
2019-03-15T11:32:41.240Z,8.40
2019-03-15T11:35:11.155Z,8.50
2019-03-15T11:37:39.702Z,8.50
2019-03-15T11:40:13.841Z,8.40
2019-03-15T11:42:41.000Z,8.30
2019-03-15T11:45:10.566Z,8.20
2019-03-15T11:48:00.729Z,8.20
2019-03-15T11:50:15.220Z,8.20
2019-03-15T11:52:44.651Z,8.30
2019-03-15T11:55:13.147Z,8.30
2019-03-15T11:57:41.703Z,8.30
2019-03-15T12:00:13.209Z,8.30
2019-03-15T12:02:41.906Z,8.40
2019-03-15T12:05:10.456Z,8.50
2019-03-15T12:07:40.840Z,8.60
2019-03-15T12:10:11.301Z,8.70
2019-03-15T12:12:39.784Z,8.80
2019-03-15T12:15:14.857Z,8.70
2019-03-15T12:17:43.422Z,8.70
2019-03-15T12:20:12.733Z,8.80
2019-03-15T12:22:41.391Z,8.70
2019-03-15T12:25:10.754Z,8.70
2019-03-15T12:27:39.288Z,8.60
2019-03-15T12:30:16.660Z,8.60
2019-03-15T12:32:45.199Z,8.70
2019-03-15T12:35:14.421Z,8.70
2019-03-15T12:37:42.941Z,8.80
2019-03-15T12:40:13.810Z,8.80
2019-03-15T12:42:42.185Z,8.80
2019-03-15T12:45:11.640Z,8.90
2019-03-15T12:47:40.096Z,8.90
2019-03-15T12:50:12.567Z,9.00
2019-03-15T12:52:48.936Z,9.00
2019-03-15T12:55:12.771Z,9.20
2019-03-15T12:57:41.329Z,9.30
2019-03-15T13:00:17.953Z,9.20
2019-03-15T13:02:46.448Z,9.00
2019-03-15T13:05:14.904Z,8.80
2019-03-15T13:07:43.419Z,8.50
2019-03-15T13:10:14.425Z,8.50
2019-03-15T13:12:42.936Z,8.50
2019-03-15T13:15:13.348Z,8.50
2019-03-15T13:17:41.852Z,8.60
2019-03-15T13:20:16.784Z,8.70
2019-03-15T13:22:46.048Z,8.70
2019-03-15T13:25:14.595Z,8.80
2019-03-15T13:27:43.026Z,9.00
2019-03-15T13:30:13.852Z,9.10
2019-03-15T13:32:42.326Z,9.20
2019-03-15T13:35:11.124Z,9.20
2019-03-15T13:37:42.575Z,9.10
2019-03-15T13:40:14.826Z,9.20
2019-03-15T13:42:43.259Z,9.20
2019-03-15T13:45:12.968Z,9.20
2019-03-15T13:47:41.453Z,9.30
2019-03-15T13:50:12.182Z,9.30
2019-03-15T13:52:40.646Z,9.30
2019-03-15T13:55:09.133Z,9.20
2019-03-15T13:57:37.529Z,9.20
2019-03-15T14:00:11.778Z,9.20
2019-03-15T14:02:40.230Z,9.40
2019-03-15T14:05:08.623Z,9.50
2019-03-15T14:07:37.205Z,9.50
2019-03-15T14:10:08.811Z,9.50
2019-03-15T14:12:37.276Z,9.30
2019-03-15T14:15:08.968Z,9.20
2019-03-15T14:17:37.544Z,9.00
2019-03-15T14:20:11.197Z,8.90
2019-03-15T14:22:39.743Z,8.80
2019-03-15T14:25:10.954Z,8.80
2019-03-15T14:27:39.432Z,9.00
2019-03-15T14:30:12.850Z,8.90
2019-03-15T14:32:41.263Z,8.80
2019-03-15T14:35:10.273Z,8.80
2019-03-15T14:37:38.697Z,8.70
2019-03-15T14:40:11.770Z,8.70
2019-03-15T14:42:40.490Z,8.70
2019-03-15T14:45:11.662Z,8.60
2019-03-15T14:47:40.301Z,8.60
2019-03-15T14:50:13.994Z,8.70
2019-03-15T14:52:42.461Z,8.70
2019-03-15T14:55:12.449Z,8.70
2019-03-15T14:57:51.062Z,8.80
2019-03-15T15:00:16.956Z,8.80
2019-03-15T15:02:45.484Z,8.80
2019-03-15T15:05:19.951Z,8.80
2019-03-15T15:07:48.475Z,8.80
2019-03-15T15:10:19.895Z,8.70
2019-03-15T15:12:48.380Z,8.60
2019-03-15T15:15:18.121Z,8.70
2019-03-15T15:17:46.519Z,8.70
2019-03-15T15:20:15.044Z,8.60
2019-03-15T15:23:02.971Z,8.40
2019-03-15T15:25:31.496Z,8.30
2019-03-15T15:28:04.689Z,8.30
2019-03-15T15:30:30.316Z,8.20
2019-03-15T15:32:58.730Z,8.30
2019-03-15T15:35:27.412Z,8.40
2019-03-15T15:37:55.920Z,8.40
2019-03-15T15:40:24.524Z,8.40
2019-03-15T15:42:53.002Z,8.40
2019-03-15T15:45:21.605Z,8.30
2019-03-15T15:47:50.266Z,8.20
2019-03-15T15:50:18.772Z,8.20
2019-03-15T15:52:47.242Z,8.20
2019-03-15T15:55:16.441Z,8.30
2019-03-15T15:57:45.095Z,8.20
2019-03-15T16:00:16.302Z,8.30
2019-03-15T16:02:44.808Z,8.30
2019-03-15T16:05:13.387Z,8.20
2019-03-15T16:07:41.845Z,8.20
2019-03-15T16:10:13.538Z,8.20
2019-03-15T16:12:42.145Z,8.00
2019-03-15T16:15:15.027Z,7.90
2019-03-15T16:17:45.430Z,7.80
2019-03-15T16:20:13.735Z,7.70
2019-03-15T16:22:42.166Z,7.70
2019-03-15T16:25:11.435Z,7.80
2019-03-15T16:27:39.900Z,7.70
2019-03-15T16:30:22.137Z,7.60
2019-03-15T16:32:50.698Z,7.70
2019-03-15T16:35:19.167Z,7.60
2019-03-15T16:37:47.709Z,7.60
2019-03-15T16:40:16.523Z,7.50
2019-03-15T16:42:45.057Z,7.30
2019-03-15T16:45:16.188Z,7.20
2019-03-15T16:47:44.674Z,7.10
2019-03-15T16:50:13.781Z,7.00
2019-03-15T16:52:42.292Z,6.90
2019-03-15T16:55:11.937Z,6.90
2019-03-15T16:57:40.540Z,6.80
2019-03-15T17:00:11.847Z,6.80
2019-03-15T17:02:40.381Z,6.60
2019-03-15T17:05:12.516Z,6.50
2019-03-15T17:07:41.135Z,6.50
2019-03-15T17:10:11.905Z,6.50
2019-03-15T17:12:40.300Z,6.50
2019-03-15T17:15:14.756Z,6.50
2019-03-15T17:17:43.281Z,6.40
2019-03-15T17:20:12.145Z,6.50
2019-03-15T17:22:40.620Z,6.50
2019-03-15T17:25:11.178Z,6.50
2019-03-15T17:27:39.839Z,6.60
2019-03-15T17:30:13.005Z,6.70
2019-03-15T17:32:41.429Z,6.60
2019-03-15T17:35:12.565Z,6.60
2019-03-15T17:37:41.280Z,6.60
2019-03-15T17:40:19.574Z,6.70
2019-03-15T17:42:48.149Z,6.70
2019-03-15T17:45:16.613Z,6.60
2019-03-15T17:47:45.206Z,6.60
2019-03-15T17:50:16.956Z,6.50
2019-03-15T17:52:45.443Z,6.50
2019-03-15T17:55:14.892Z,6.50
2019-03-15T17:57:45.542Z,6.50
2019-03-15T18:00:26.814Z,6.60
2019-03-15T18:02:55.430Z,6.50
2019-03-15T18:05:23.829Z,6.40
2019-03-15T18:07:52.651Z,6.30
2019-03-15T18:10:21.233Z,6.30
2019-03-15T18:12:49.774Z,6.30
2019-03-15T18:15:18.235Z,6.30
2019-03-15T18:17:47.023Z,6.30
2019-03-15T18:20:15.536Z,6.40
2019-03-15T18:22:44.101Z,6.30
2019-03-15T18:25:12.690Z,6.40
2019-03-15T18:27:41.351Z,6.40
2019-03-15T18:30:17.524Z,6.40
2019-03-15T18:32:45.995Z,6.40
2019-03-15T18:35:14.715Z,6.40
2019-03-15T18:37:43.180Z,6.30
2019-03-15T18:40:16.629Z,6.20
2019-03-15T18:42:45.159Z,6.30
2019-03-15T18:45:15.874Z,6.30
2019-03-15T18:47:44.415Z,6.30
2019-03-15T18:50:18.454Z,6.30
2019-03-15T18:52:46.972Z,6.20
2019-03-15T18:55:15.545Z,6.20
2019-03-15T18:57:44.078Z,6.10
2019-03-15T19:00:15.018Z,6.10
2019-03-15T19:02:43.554Z,6.00
2019-03-15T19:05:12.134Z,6.00
2019-03-15T19:07:40.590Z,6.00
2019-03-15T19:10:10.641Z,6.00
2019-03-15T19:12:39.074Z,6.00
2019-03-15T19:15:18.757Z,6.10
2019-03-15T19:17:47.244Z,6.00
2019-03-15T19:20:16.487Z,6.00
2019-03-15T19:22:44.957Z,6.10
2019-03-15T19:25:14.374Z,6.10
2019-03-15T19:27:42.781Z,6.10
2019-03-15T19:30:18.487Z,6.10
2019-03-15T19:32:47.098Z,6.10
2019-03-15T19:35:15.566Z,6.10
2019-03-15T19:37:44.042Z,6.10
2019-03-15T19:40:14.748Z,6.10
2019-03-15T19:42:45.705Z,6.20
2019-03-15T19:45:17.807Z,6.20
2019-03-15T19:47:46.259Z,6.10
2019-03-15T19:50:19.992Z,6.10
2019-03-15T19:52:48.502Z,6.00
2019-03-15T19:55:17.171Z,5.90
2019-03-15T19:57:45.720Z,5.90
2019-03-15T20:00:23.467Z,5.90
2019-03-15T20:02:51.914Z,5.90
2019-03-15T20:05:20.462Z,5.90
2019-03-15T20:07:49.090Z,5.90
2019-03-15T20:10:17.729Z,5.80
2019-03-15T20:12:46.279Z,5.80
2019-03-15T20:15:16.098Z,5.80
2019-03-15T20:17:44.730Z,5.80
2019-03-15T20:20:18.009Z,5.80
2019-03-15T20:22:46.555Z,5.90
2019-03-15T20:25:15.822Z,5.90
2019-03-15T20:27:44.427Z,5.80
2019-03-15T20:30:21.506Z,5.90
2019-03-15T20:32:47.986Z,5.90
2019-03-15T20:35:16.461Z,5.80
2019-03-15T20:37:44.945Z,5.80
2019-03-15T20:40:14.314Z,5.80
2019-03-15T20:42:42.786Z,5.80
2019-03-15T20:45:29.101Z,5.80
2019-03-15T20:47:57.647Z,5.80
2019-03-15T20:50:27.362Z,5.70
2019-03-15T20:53:07.704Z,5.70
2019-03-15T20:55:28.837Z,5.70
2019-03-15T20:57:56.629Z,5.70
2019-03-15T21:00:35.522Z,5.70
2019-03-15T21:02:55.674Z,5.70
2019-03-15T21:05:24.454Z,5.70
2019-03-15T21:07:52.884Z,5.70
2019-03-15T21:10:21.386Z,5.70
2019-03-15T21:12:49.949Z,5.70
2019-03-15T21:15:18.608Z,5.70
2019-03-15T21:17:47.393Z,5.70
2019-03-15T21:20:22.521Z,5.70
2019-03-15T21:22:50.370Z,5.70
2019-03-15T21:25:18.943Z,5.80
2019-03-15T21:27:54.244Z,5.80
2019-03-15T21:30:22.881Z,5.70
2019-03-15T21:32:51.311Z,5.70
2019-03-15T21:35:19.896Z,5.80
2019-03-15T21:37:48.622Z,5.80
2019-03-15T21:40:18.755Z,5.80
2019-03-15T21:42:47.306Z,5.80
2019-03-15T21:45:15.848Z,5.70
2019-03-15T21:47:44.365Z,5.80
2019-03-15T21:50:20.214Z,5.70
2019-03-15T21:52:48.781Z,5.70
2019-03-15T21:55:17.321Z,5.70
2019-03-15T21:57:46.140Z,5.80
2019-03-15T22:00:18.827Z,5.80
2019-03-15T22:02:47.296Z,5.80
2019-03-15T22:05:15.728Z,5.70
2019-03-15T22:07:44.877Z,5.70
2019-03-15T22:10:14.752Z,5.70
2019-03-15T22:12:43.231Z,5.70
2019-03-15T22:15:14.757Z,5.70
2019-03-15T22:17:43.423Z,5.80
2019-03-15T22:20:17.850Z,5.80
2019-03-15T22:22:46.381Z,5.80
2019-03-15T22:25:14.925Z,5.80
2019-03-15T22:27:43.451Z,5.80
2019-03-15T22:30:15.470Z,5.80
2019-03-15T22:32:44.107Z,5.80
2019-03-15T22:35:14.017Z,5.80
2019-03-15T22:37:42.527Z,5.80
2019-03-15T22:40:12.635Z,5.70
2019-03-15T22:42:41.337Z,5.60
2019-03-15T22:45:11.078Z,5.60
2019-03-15T22:47:39.487Z,5.60
2019-03-15T22:50:09.269Z,5.50
2019-03-15T22:52:37.861Z,5.50
2019-03-15T22:55:08.398Z,5.60
2019-03-15T22:57:37.037Z,5.50
2019-03-15T23:00:16.443Z,5.50
2019-03-15T23:02:47.758Z,5.50
2019-03-15T23:05:16.318Z,5.50
2019-03-15T23:07:44.708Z,5.50
2019-03-15T23:10:13.222Z,5.50
2019-03-15T23:12:41.697Z,5.50
2019-03-15T23:15:11.354Z,5.50
2019-03-15T23:17:39.907Z,5.50
2019-03-15T23:20:12.711Z,5.60
2019-03-15T23:22:41.169Z,5.60
2019-03-15T23:25:09.778Z,5.70
2019-03-15T23:27:38.356Z,5.70
2019-03-15T23:30:09.667Z,5.70
2019-03-15T23:32:38.323Z,5.80
2019-03-15T23:35:06.849Z,5.80
2019-03-15T23:37:35.340Z,5.90
2019-03-15T23:40:05.069Z,5.90
2019-03-15T23:42:33.540Z,5.90
2019-03-15T23:45:02.249Z,6.00
2019-03-15T23:47:30.647Z,6.00
2019-03-15T23:49:59.121Z,6.00
2019-03-15T23:52:27.587Z,6.00
2019-03-15T23:54:56.150Z,6.00
2019-03-15T23:57:24.620Z,6.00
2019-03-15T23:59:53.039Z,6.00
